Time;durP1;ratioP1;P1;durP2;ratioP2;P2;SDS_P1;SDS_P2;PMS_P1;PMS_P2;Temp;Humidity;BMP_temperature;BMP_pressure;BME280_temperature;BME280_humidity;BME280_pressure;Samples;Min_cycle;Max_cycle;Signal;HPM_P1;HPM_P2
2023/05/03 00:01:36;;;;;;;6.18;3.20;;;;;;;;;;5078667;28;20360;-63
2023/05/03 00:04:07;;;;;;;8.02;2.67;;;;;;;;;;5074620;28;20058;-63
2023/05/03 00:06:37;;;;;;;5.85;2.00;;;;;;;;;;5113739;28;20039;-62
2023/05/03 00:09:09;;;;;;;5.78;2.20;;;;;;;;;;5113513;28;20039;-64
2023/05/03 00:11:39;;;;;;;5.57;2.85;;;;;;;;;;5113734;28;20046;-63
2023/05/03 00:14:09;;;;;;;6.88;3.22;;;;;;;;;;5113601;28;20047;-64
2023/05/03 00:16:39;;;;;;;6.22;2.40;;;;;;;;;;5113723;28;20051;-63
2023/05/03 00:19:09;;;;;;;7.50;2.55;;;;;;;;;;5077015;28;20059;-64
2023/05/03 00:21:59;;;;;;;5.40;3.08;;;;;;;;;;5080299;28;20365;-63
2023/05/03 00:24:29;;;;;;;5.10;2.13;;;;;;;;;;5113660;28;20066;-64
2023/05/03 00:26:59;;;;;;;4.70;2.17;;;;;;;;;;5070252;28;20044;-64
2023/05/03 00:29:30;;;;;;;4.20;1.67;;;;;;;;;;5070186;28;20048;-64
2023/05/03 00:32:01;;;;;;;3.90;1.92;;;;;;;;;;5069988;28;20516;-63
2023/05/03 00:34:31;;;;;;;3.55;1.80;;;;;;;;;;5005260;28;20056;-64
2023/05/03 00:37:01;;;;;;;5.60;1.75;;;;;;;;;;5070218;28;20049;-63
2023/05/03 00:39:32;;;;;;;3.35;1.70;;;;;;;;;;5069908;28;20049;-63
2023/05/03 00:42:03;;;;;;;2.22;1.05;;;;;;;;;;5010020;28;20054;-63
2023/05/03 00:44:34;;;;;;;1.42;0.60;;;;;;;;;;4977410;28;20493;-63
2023/05/03 00:47:06;;;;;;;2.28;0.73;;;;;;;;;;5010050;28;20584;-63
2023/05/03 00:49:37;;;;;;;2.58;0.90;;;;;;;;;;4977390;28;20057;-63
2023/05/03 00:52:11;;;;;;;3.45;1.08;;;;;;;;;;5009540;28;20065;-63
2023/05/03 00:54:41;;;;;;;3.30;0.80;;;;;;;;;;4978260;28;20054;-63
2023/05/03 00:57:12;;;;;;;2.50;0.90;;;;;;;;;;4990288;28;20054;-62
2023/05/03 00:59:42;;;;;;;3.88;0.88;;;;;;;;;;4970489;28;20408;-63
2023/05/03 01:02:13;;;;;;;2.30;1.20;;;;;;;;;;4907457;28;20070;-64
2023/05/03 01:04:43;;;;;;;2.38;1.00;;;;;;;;;;4981002;28;20061;-64
2023/05/03 01:07:40;;;;;;;1.52;0.80;;;;;;;;;;5000315;28;20050;-64
2023/05/03 01:10:37;;;;;;;7.93;1.17;;;;;;;;;;5009715;28;20079;-64
2023/05/03 01:13:22;;;;;;;1.88;0.77;;;;;;;;;;4989891;28;20039;-64
2023/05/03 01:16:26;;;;;;;;;;;;;;;;;;4990608;28;20062;-64
2023/05/03 01:19:01;;;;;;;4.28;1.20;;;;;;;;;;4934873;29;19966;-63
2023/05/03 01:21:34;;;;;;;2.85;0.90;;;;;;;;;;4983287;28;20051;-63
2023/05/03 01:24:17;;;;;;;2.00;0.88;;;;;;;;;;4955076;28;20054;-64
2023/05/03 01:26:47;;;;;;;3.33;0.80;;;;;;;;;;4951182;29;20051;-63
2023/05/03 01:29:17;;;;;;;1.25;0.60;;;;;;;;;;4950956;28;20178;-64
2023/05/03 01:31:56;;;;;;;1.00;0.50;;;;;;;;;;4934320;29;20059;-63
2023/05/03 01:34:35;;;;;;;2.17;0.60;;;;;;;;;;4928386;29;20064;-64
2023/05/03 01:37:09;;;;;;;;;;;;;;;;;;4955531;28;20066;-63
2023/05/03 01:39:50;;;;;;;2.47;0.63;;;;;;;;;;4953810;28;20322;-63
2023/05/03 01:42:22;;;;;;;2.00;0.70;;;;;;;;;;4969888;28;20047;-63
2023/05/03 01:44:54;;;;;;;1.50;0.68;;;;;;;;;;4934953;29;20051;-63
2023/05/03 01:47:25;;;;;;;1.33;0.50;;;;;;;;;;4919303;29;20059;-63
2023/05/03 01:49:59;;;;;;;1.23;0.50;;;;;;;;;;4973159;28;20494;-63
2023/05/03 01:52:30;;;;;;;1.35;0.60;;;;;;;;;;4985526;28;20524;-63
2023/05/03 01:55:00;;;;;;;1.00;0.50;;;;;;;;;;4988956;28;20054;-63
2023/05/03 01:57:30;;;;;;;2.10;0.73;;;;;;;;;;4989199;28;20062;-63
2023/05/03 02:00:00;;;;;;;1.58;0.70;;;;;;;;;;4988948;28;20061;-63
2023/05/03 02:02:39;;;;;;;4.78;0.70;;;;;;;;;;4989542;28;20050;-63
2023/05/03 02:05:10;;;;;;;1.25;0.60;;;;;;;;;;4973385;28;20062;-63
2023/05/03 02:07:40;;;;;;;3.60;0.80;;;;;;;;;;4981660;28;20047;-62
2023/05/03 02:10:13;;;;;;;2.55;0.70;;;;;;;;;;4982513;28;20070;-63
2023/05/03 02:12:44;;;;;;;4.93;0.60;;;;;;;;;;4950329;29;20082;-62
2023/05/03 02:15:15;;;;;;;3.17;0.85;;;;;;;;;;4966009;28;20058;-63
2023/05/03 02:17:48;;;;;;;1.73;0.80;;;;;;;;;;4950388;29;20066;-62
2023/05/03 02:20:18;;;;;;;1.98;0.70;;;;;;;;;;4952707;28;20503;-63
2023/05/03 02:22:48;;;;;;;1.65;0.75;;;;;;;;;;4949769;29;20547;-63
2023/05/03 02:25:19;;;;;;;4.63;1.00;;;;;;;;;;4953759;28;20066;-62
2023/05/03 02:27:49;;;;;;;4.55;0.82;;;;;;;;;;4969472;28;20507;-63
2023/05/03 02:30:19;;;;;;;3.60;0.90;;;;;;;;;;4996385;28;20046;-63
2023/05/03 02:32:49;;;;;;;2.17;1.00;;;;;;;;;;4958365;28;20052;-63
2023/05/03 02:35:20;;;;;;;3.03;1.00;;;;;;;;;;4933669;29;20535;-63
2023/05/03 02:37:50;;;;;;;2.22;0.82;;;;;;;;;;4899749;29;20206;-63
2023/05/03 02:40:21;;;;;;;3.15;1.10;;;;;;;;;;4927341;29;20059;-62
2023/05/03 02:42:51;;;;;;;2.55;1.10;;;;;;;;;;4910484;29;20059;-62
2023/05/03 02:45:26;;;;;;;3.15;0.90;;;;;;;;;;4899067;29;20075;-63
2023/05/03 02:47:58;;;;;;;2.90;1.10;;;;;;;;;;4899679;29;20589;-63
2023/05/03 02:50:28;;;;;;;2.10;1.00;;;;;;;;;;4914962;29;20494;-63
2023/05/03 02:52:58;;;;;;;4.25;1.48;;;;;;;;;;4937101;29;20055;-63
2023/05/03 02:55:28;;;;;;;3.42;1.13;;;;;;;;;;4975383;28;20042;-63
2023/05/03 02:57:58;;;;;;;3.25;1.38;;;;;;;;;;4924010;29;20051;-62
2023/05/03 03:00:29;;;;;;;5.15;1.00;;;;;;;;;;4905119;29;20052;-63
2023/05/03 03:02:59;;;;;;;4.30;1.15;;;;;;;;;;4918213;29;20071;-63
2023/05/03 03:05:29;;;;;;;2.55;1.10;;;;;;;;;;4917664;29;20458;-62
2023/05/03 03:08:01;;;;;;;2.45;0.95;;;;;;;;;;4917143;29;20409;-63
2023/05/03 03:10:31;;;;;;;2.83;0.80;;;;;;;;;;4895332;29;20051;-63
2023/05/03 03:13:01;;;;;;;5.68;1.70;;;;;;;;;;4936904;29;20055;-62
2023/05/03 03:15:37;;;;;;;4.75;1.70;;;;;;;;;;4887642;29;20063;-62
2023/05/03 03:18:07;;;;;;;4.30;1.70;;;;;;;;;;4910803;29;20048;-63
2023/05/03 03:20:37;;;;;;;2.85;1.48;;;;;;;;;;4926399;29;20055;-62
2023/05/03 03:23:08;;;;;;;4.15;1.92;;;;;;;;;;4917954;29;20063;-62
2023/05/03 03:25:38;;;;;;;5.05;1.45;;;;;;;;;;4889264;29;20431;-63
2023/05/03 03:28:08;;;;;;;5.65;2.10;;;;;;;;;;4952586;28;20346;-63
2023/05/03 03:30:39;;;;;;;3.33;1.45;;;;;;;;;;4918040;29;20060;-62
2023/05/03 03:33:18;;;;;;;3.75;1.90;;;;;;;;;;4906956;29;20080;-63
2023/05/03 03:35:55;;;;;;;5.95;1.63;;;;;;;;;;4929635;28;20052;-62
2023/05/03 03:38:30;;;;;;;3.00;1.63;;;;;;;;;;4931371;29;20052;-63
2023/05/03 03:41:05;;;;;;;4.75;1.85;;;;;;;;;;4917396;29;20052;-63
2023/05/03 03:43:35;;;;;;;3.85;2.00;;;;;;;;;;4949235;29;20051;-62
2023/05/03 03:46:10;;;;;;;2.92;1.60;;;;;;;;;;4974896;28;20183;-63
2023/05/03 03:48:41;;;;;;;3.17;1.73;;;;;;;;;;4939693;29;20066;-63
2023/05/03 03:51:12;;;;;;;4.40;1.50;;;;;;;;;;4918795;28;20051;-62
2023/05/03 03:53:47;;;;;;;4.00;1.60;;;;;;;;;;4886916;29;20509;-64
2023/05/03 03:56:17;;;;;;;4.57;1.50;;;;;;;;;;4895881;29;20179;-62
2023/05/03 03:58:49;;;;;;;3.20;1.40;;;;;;;;;;4900984;29;20053;-62
2023/05/03 04:01:19;;;;;;;5.53;0.90;;;;;;;;;;4914145;29;20059;-62
2023/05/03 04:03:49;;;;;;;3.30;1.10;;;;;;;;;;4898532;29;20071;-63
2023/05/03 04:06:20;;;;;;;1.63;0.90;;;;;;;;;;4914083;29;20052;-62
2023/05/03 04:08:50;;;;;;;3.75;0.98;;;;;;;;;;4897330;29;20063;-63
2023/05/03 04:11:20;;;;;;;1.40;0.60;;;;;;;;;;4846307;29;20050;-62
2023/05/03 04:13:55;;;;;;;3.83;1.00;;;;;;;;;;4851102;29;20057;-63
2023/05/03 04:16:25;;;;;;;1.15;0.73;;;;;;;;;;4857593;29;20434;-62
2023/05/03 04:18:55;;;;;;;1.95;0.90;;;;;;;;;;4847652;29;20050;-62
2023/05/03 04:21:27;;;;;;;2.03;0.98;;;;;;;;;;4857791;29;20426;-62
2023/05/03 04:23:57;;;;;;;4.95;1.00;;;;;;;;;;4845859;29;20054;-62
2023/05/03 04:26:27;;;;;;;3.05;0.70;;;;;;;;;;4834204;29;20062;-63
2023/05/03 04:29:10;;;;;;;2.22;0.80;;;;;;;;;;4848057;29;20061;-62
2023/05/03 04:31:42;;;;;;;1.95;0.90;;;;;;;;;;4833325;29;20408;-62
2023/05/03 04:34:14;;;;;;;1.98;0.80;;;;;;;;;;4839189;29;20049;-63
2023/05/03 04:36:47;;;;;;;1.55;0.85;;;;;;;;;;4839106;29;20049;-62
2023/05/03 04:39:18;;;;;;;1.67;0.90;;;;;;;;;;4838057;29;20578;-62
2023/05/03 04:41:49;;;;;;;1.60;0.75;;;;;;;;;;4857498;29;20472;-62
2023/05/03 04:44:19;;;;;;;1.48;0.70;;;;;;;;;;4876080;29;20057;-63
2023/05/03 04:46:50;;;;;;;1.83;0.82;;;;;;;;;;4812207;29;20050;-63
2023/05/03 04:49:21;;;;;;;2.40;1.10;;;;;;;;;;4832098;29;20415;-64
2023/05/03 04:51:51;;;;;;;2.65;1.00;;;;;;;;;;4838975;29;20542;-62
2023/05/03 04:54:25;;;;;;;1.65;1.10;;;;;;;;;;4808842;29;20054;-62
2023/05/03 04:56:56;;;;;;;7.10;2.17;;;;;;;;;;4830584;29;20411;-62
2023/05/03 04:59:26;;;;;;;5.80;1.10;;;;;;;;;;4850358;29;20583;-63
2023/05/03 05:01:57;;;;;;;4.32;0.85;;;;;;;;;;4838423;29;20461;-62
2023/05/03 05:04:28;;;;;;;3.33;0.85;;;;;;;;;;4801957;29;20054;-62
2023/05/03 05:06:58;;;;;;;5.00;1.08;;;;;;;;;;4783695;29;20059;-63
2023/05/03 05:09:31;;;;;;;2.50;0.80;;;;;;;;;;4784043;29;20059;-63
2023/05/03 05:12:03;;;;;;;8.77;1.45;;;;;;;;;;4791949;29;20059;-63
2023/05/03 05:14:38;;;;;;;5.72;1.23;;;;;;;;;;4776427;29;20408;-62
2023/05/03 05:17:09;;;;;;;2.35;1.20;;;;;;;;;;4812336;29;20499;-62
2023/05/03 05:19:39;;;;;;;2.75;1.20;;;;;;;;;;4859155;29;20056;-63
2023/05/03 05:22:09;;;;;;;3.75;1.10;;;;;;;;;;4893919;29;20064;-63
2023/05/03 05:24:48;;;;;;;3.17;1.13;;;;;;;;;;4875074;29;20045;-63
2023/05/03 05:27:20;;;;;;;2.55;1.10;;;;;;;;;;4896906;29;20060;-62
2023/05/03 05:29:53;;;;;;;2.42;1.15;;;;;;;;;;4881611;29;20065;-63
2023/05/03 05:32:23;;;;;;;4.95;1.10;;;;;;;;;;4835090;29;20058;-62
2023/05/03 05:34:55;;;;;;;1.73;0.93;;;;;;;;;;4867549;29;20080;-63
2023/05/03 05:37:28;;;;;;;3.67;1.42;;;;;;;;;;4875115;29;20498;-62
2023/05/03 05:40:01;;;;;;;3.22;1.20;;;;;;;;;;4844831;29;20501;-63
2023/05/03 05:42:37;;;;;;;7.05;1.20;;;;;;;;;;4901988;29;20056;-63
2023/05/03 05:45:08;;;;;;;9.90;1.10;;;;;;;;;;4903886;29;20067;-62
2023/05/03 05:47:39;;;;;;;2.90;1.23;;;;;;;;;;4880934;29;20053;-62
2023/05/03 05:50:10;;;;;;;3.28;1.40;;;;;;;;;;4859481;29;20510;-64
2023/05/03 05:52:55;;;;;;;2.42;1.38;;;;;;;;;;4849286;29;20058;-64
2023/05/03 05:55:28;;;;;;;2.30;1.30;;;;;;;;;;4832751;29;20047;-64
2023/05/03 05:58:00;;;;;;;2.65;1.52;;;;;;;;;;4834087;29;20570;-63
2023/05/03 06:00:37;;;;;;;4.72;1.70;;;;;;;;;;4837515;29;20058;-64
2023/05/03 06:03:08;;;;;;;2.55;1.73;;;;;;;;;;4837629;29;20091;-64
2023/05/03 06:05:38;;;;;;;3.03;2.03;;;;;;;;;;4842112;29;20046;-64
2023/05/03 06:08:11;;;;;;;3.20;2.03;;;;;;;;;;4870843;29;20060;-63
2023/05/03 06:10:42;;;;;;;3.13;1.85;;;;;;;;;;4874648;29;20059;-63
2023/05/03 06:13:12;;;;;;;7.30;2.10;;;;;;;;;;4843507;29;20053;-63
2023/05/03 06:15:43;;;;;;;4.85;1.83;;;;;;;;;;4874272;29;20395;-63
2023/05/03 06:18:14;;;;;;;5.55;2.03;;;;;;;;;;4874209;29;20061;-64
2023/05/03 06:20:49;;;;;;;6.57;1.83;;;;;;;;;;4828230;29;20057;-63
2023/05/03 06:23:20;;;;;;;5.20;1.90;;;;;;;;;;4862508;29;20057;-63
2023/05/03 06:25:52;;;;;;;4.55;2.03;;;;;;;;;;4870905;29;20057;-63
2023/05/03 06:28:23;;;;;;;15.02;2.75;;;;;;;;;;4855794;29;20062;-62
2023/05/03 06:30:55;;;;;;;4.07;2.10;;;;;;;;;;4852119;29;20099;-62
2023/05/03 06:33:27;;;;;;;4.43;1.77;;;;;;;;;;4837172;29;20511;-62
2023/05/03 06:35:58;;;;;;;5.75;1.90;;;;;;;;;;4848533;29;20061;-64
2023/05/03 06:38:28;;;;;;;4.85;2.25;;;;;;;;;;4855823;29;20099;-62
2023/05/03 06:40:58;;;;;;;3.85;2.22;;;;;;;;;;4856005;29;20387;-62
2023/05/03 06:43:28;;;;;;;4.32;2.03;;;;;;;;;;4855742;29;20170;-62
2023/05/03 06:46:03;;;;;;;4.50;1.83;;;;;;;;;;4844504;29;20062;-61
2023/05/03 06:48:33;;;;;;;3.90;1.90;;;;;;;;;;4832812;29;20054;-61
2023/05/03 06:51:05;;;;;;;3.55;1.75;;;;;;;;;;4858530;29;20060;-63
2023/05/03 06:53:35;;;;;;;6.70;1.90;;;;;;;;;;4867284;29;20053;-63
2023/05/03 06:56:06;;;;;;;4.57;1.90;;;;;;;;;;4924091;29;20060;-62
2023/05/03 06:58:36;;;;;;;3.28;1.77;;;;;;;;;;4894100;29;20064;-62
2023/05/03 07:01:06;;;;;;;3.63;1.80;;;;;;;;;;4911850;29;20056;-63
2023/05/03 07:03:37;;;;;;;2.63;1.52;;;;;;;;;;4921921;29;20059;-62
2023/05/03 07:06:09;;;;;;;3.28;2.03;;;;;;;;;;4931040;29;20058;-62
2023/05/03 07:08:40;;;;;;;3.33;1.92;;;;;;;;;;4943731;28;20055;-62
2023/05/03 07:11:10;;;;;;;6.32;2.10;;;;;;;;;;4966710;28;20061;-62
2023/05/03 07:13:40;;;;;;;3.97;1.58;;;;;;;;;;5011911;28;20498;-63
2023/05/03 07:16:10;;;;;;;3.15;1.77;;;;;;;;;;5028778;28;20050;-63
2023/05/03 07:18:40;;;;;;;3.13;1.60;;;;;;;;;;5015970;28;20053;-63
2023/05/03 07:21:10;;;;;;;5.53;2.03;;;;;;;;;;5078775;28;20056;-61
2023/05/03 07:23:43;;;;;;;4.07;1.83;;;;;;;;;;5075917;28;20102;-62
2023/05/03 07:26:13;;;;;;;4.22;2.72;;;;;;;;;;5108631;28;20089;-62
2023/05/03 07:28:43;;;;;;;4.10;1.73;;;;;;;;;;5050377;28;20443;-62
2023/05/03 07:31:13;;;;;;;4.03;2.45;;;;;;;;;;5106430;27;20375;-63
2023/05/03 07:33:43;;;;;;;3.03;1.52;;;;;;;;;;5083562;27;20047;-63
2023/05/03 07:36:16;;;;;;;3.65;1.83;;;;;;;;;;5134974;27;20062;-64
2023/05/03 07:38:46;;;;;;;4.72;1.88;;;;;;;;;;5031611;27;20055;-64
2023/05/03 07:41:16;;;;;;;4.75;1.98;;;;;;;;;;5064953;27;20047;-64
2023/05/03 07:43:46;;;;;;;3.70;1.52;;;;;;;;;;5099139;27;20058;-64
2023/05/03 07:46:16;;;;;;;5.80;1.83;;;;;;;;;;5070996;28;20041;-63
2023/05/03 07:48:46;;;;;;;3.30;1.77;;;;;;;;;;4989061;28;20055;-65
2023/05/03 07:51:16;;;;;;;4.32;1.73;;;;;;;;;;5071209;28;20052;-61
2023/05/03 07:53:46;;;;;;;3.63;1.45;;;;;;;;;;5054323;28;20059;-63
2023/05/03 07:56:16;;;;;;;4.80;1.70;;;;;;;;;;5071017;28;20064;-64
2023/05/03 07:58:46;;;;;;;2.88;1.52;;;;;;;;;;5037591;28;20056;-63
2023/05/03 08:01:32;;;;;;;3.28;2.00;;;;;;;;;;5071119;28;20056;-63
2023/05/03 08:04:03;;;;;;;3.00;1.55;;;;;;;;;;5070715;28;20155;-63
2023/05/03 08:06:34;;;;;;;3.50;1.30;;;;;;;;;;5054240;28;20515;-63
2023/05/03 08:09:05;;;;;;;2.63;1.40;;;;;;;;;;5037678;28;20052;-63
2023/05/03 08:11:35;;;;;;;5.15;1.70;;;;;;;;;;4965807;28;20472;-63
2023/05/03 08:14:05;;;;;;;4.75;1.52;;;;;;;;;;5030825;28;20053;-63
2023/05/03 08:16:36;;;;;;;2.67;1.45;;;;;;;;;;5007115;28;20067;-63
2023/05/03 08:19:07;;;;;;;2.10;1.33;;;;;;;;;;5090888;28;20510;-63
2023/05/03 08:21:37;;;;;;;5.13;1.70;;;;;;;;;;5057351;28;20045;-63
2023/05/03 08:24:07;;;;;;;5.75;1.20;;;;;;;;;;5073702;28;20056;-63
2023/05/03 08:26:38;;;;;;;2.00;1.30;;;;;;;;;;5074360;28;20052;-63
2023/05/03 08:29:07;;;;;;;2.28;1.15;;;;;;;;;;5073556;28;20163;-63
2023/05/03 08:31:38;;;;;;;2.35;1.10;;;;;;;;;;5090970;28;20062;-62
2023/05/03 08:34:09;;;;;;;1.75;0.80;;;;;;;;;;5041418;28;20063;-63
2023/05/03 08:36:39;;;;;;;2.42;1.77;;;;;;;;;;5074022;28;20392;-63
2023/05/03 08:39:10;;;;;;;3.25;1.40;;;;;;;;;;5056387;28;20056;-63
2023/05/03 08:41:40;;;;;;;1.90;1.10;;;;;;;;;;4991583;28;20059;-63
2023/05/03 08:44:12;;;;;;;1.38;0.73;;;;;;;;;;5090302;28;20052;-63
2023/05/03 08:46:43;;;;;;;2.65;1.20;;;;;;;;;;5033409;28;20049;-63
2023/05/03 08:49:14;;;;;;;1.90;0.90;;;;;;;;;;5060077;28;20064;-62
2023/05/03 08:51:46;;;;;;;1.60;0.88;;;;;;;;;;5069915;28;20064;-63
2023/05/03 08:54:19;;;;;;;2.35;1.20;;;;;;;;;;5053637;28;20059;-62
2023/05/03 08:56:50;;;;;;;1.33;1.00;;;;;;;;;;5037234;28;20052;-63
2023/05/03 08:59:24;;;;;;;2.35;1.10;;;;;;;;;;5004215;28;20059;-63
2023/05/03 09:01:54;;;;;;;2.22;0.90;;;;;;;;;;5069938;28;20527;-63
2023/05/03 09:04:33;;;;;;;2.35;1.02;;;;;;;;;;5036535;28;20535;-63
2023/05/03 09:07:10;;;;;;;2.65;1.10;;;;;;;;;;5069699;28;20235;-63
2023/05/03 09:09:41;;;;;;;3.95;1.10;;;;;;;;;;5069802;28;20052;-63
2023/05/03 09:12:36;;;;;;;2.33;1.13;;;;;;;;;;5020032;28;20052;-63
2023/05/03 09:15:07;;;;;;;2.88;1.17;;;;;;;;;;5069771;28;20059;-62
2023/05/03 09:17:37;;;;;;;6.03;1.13;;;;;;;;;;5069471;28;20420;-63
2023/05/03 09:20:08;;;;;;;3.15;0.93;;;;;;;;;;5069451;28;20049;-62
2023/05/03 09:22:53;;;;;;;4.03;1.70;;;;;;;;;;5069175;28;20044;-63
2023/05/03 09:25:23;;;;;;;2.40;1.23;;;;;;;;;;5077091;27;20051;-63
2023/05/03 09:28:02;;;;;;;3.97;1.23;;;;;;;;;;5132880;27;20051;-63
2023/05/03 09:30:32;;;;;;;5.32;2.20;;;;;;;;;;5133070;27;20403;-63
2023/05/03 09:33:03;;;;;;;1.60;0.80;;;;;;;;;;5132503;27;20046;-62
2023/05/03 09:35:34;;;;;;;2.75;1.38;;;;;;;;;;5097129;27;20051;-63
2023/05/03 09:38:04;;;;;;;1.88;1.23;;;;;;;;;;5096053;27;20047;-62
2023/05/03 09:40:47;;;;;;;2.65;1.10;;;;;;;;;;5080366;27;20051;-63
2023/05/03 09:43:17;;;;;;;1.85;1.00;;;;;;;;;;5062447;27;20043;-63
2023/05/03 09:45:48;;;;;;;4.22;1.30;;;;;;;;;;5132441;27;20364;-63
2023/05/03 09:48:22;;;;;;;4.75;1.85;;;;;;;;;;5063005;27;20534;-63
2023/05/03 09:50:52;;;;;;;2.75;1.42;;;;;;;;;;5047727;28;20051;-62
2023/05/03 09:53:23;;;;;;;4.50;1.35;;;;;;;;;;5080684;27;20058;-63
2023/05/03 09:55:54;;;;;;;2.60;1.30;;;;;;;;;;5113277;27;20429;-63
2023/05/03 09:58:26;;;;;;;3.28;1.80;;;;;;;;;;5095656;27;20374;-63
2023/05/03 10:00:56;;;;;;;4.38;1.50;;;;;;;;;;5132054;27;20046;-62
2023/05/03 10:03:45;;;;;;;2.35;1.30;;;;;;;;;;5062014;27;20526;-63
2023/05/03 10:06:19;;;;;;;4.28;1.95;;;;;;;;;;5132025;27;20043;-63
2023/05/03 10:09:13;;;;;;;3.78;1.80;;;;;;;;;;5132106;27;20486;-63
2023/05/03 10:11:48;;;;;;;2.38;1.30;;;;;;;;;;5078706;27;20074;-62
2023/05/03 10:14:21;;;;;;;2.72;1.85;;;;;;;;;;5132020;27;20376;-63
2023/05/03 10:17:00;;;;;;;2.70;1.60;;;;;;;;;;5132086;27;20050;-62
2023/05/03 10:19:39;;;;;;;4.72;1.88;;;;;;;;;;5131843;27;20035;-64
2023/05/03 10:22:10;;;;;;;2.72;1.23;;;;;;;;;;5097754;27;20403;-63
2023/05/03 10:25:03;;;;;;;4.43;1.75;;;;;;;;;;5088231;28;20510;-63
2023/05/03 10:27:46;;;;;;;3.85;2.03;;;;;;;;;;4975856;28;20850;-63
2023/05/03 10:30:25;;;;;;;6.30;2.15;;;;;;;;;;5009971;28;20057;-63
2023/05/03 10:32:55;;;;;;;2.75;1.40;;;;;;;;;;5017871;28;20058;-63
2023/05/03 10:35:28;;;;;;;3.47;1.50;;;;;;;;;;5016707;28;20084;-62
2023/05/03 10:37:58;;;;;;;5.80;1.83;;;;;;;;;;5017849;28;20049;-63
2023/05/03 10:40:42;;;;;;;4.10;1.60;;;;;;;;;;5003030;28;20061;-63
2023/05/03 10:43:30;;;;;;;2.75;1.60;;;;;;;;;;5023371;28;20057;-63
2023/05/03 10:46:02;;;;;;;4.03;1.98;;;;;;;;;;5028268;28;20061;-63
2023/05/03 10:48:34;;;;;;;3.38;1.70;;;;;;;;;;5018715;28;20076;-64
2023/05/03 10:51:44;;;;;;;9.30;2.42;;;;;;;;;;4978567;28;20055;-63
2023/05/03 10:54:15;;;;;;;3.50;2.08;;;;;;;;;;4976432;28;20057;-63
2023/05/03 10:56:54;;;;;;;3.90;2.60;;;;;;;;;;4983132;28;20050;-63
2023/05/03 10:59:24;;;;;;;3.55;2.10;;;;;;;;;;4973911;28;20542;-63
2023/05/03 11:01:55;;;;;;;4.15;1.92;;;;;;;;;;4975887;28;20050;-63
2023/05/03 11:04:43;;;;;;;6.65;3.90;;;;;;;;;;5008161;28;20409;-63
2023/05/03 11:07:23;;;;;;;6.15;2.97;;;;;;;;;;5016250;28;20056;-63
2023/05/03 11:09:53;;;;;;;4.30;2.35;;;;;;;;;;4982880;28;20057;-63
2023/05/03 11:12:23;;;;;;;5.10;2.88;;;;;;;;;;4999664;28;20053;-63
2023/05/03 11:14:53;;;;;;;5.70;2.80;;;;;;;;;;5031896;28;20162;-63
2023/05/03 11:17:23;;;;;;;7.78;2.45;;;;;;;;;;5031629;28;20053;-64
2023/05/03 11:19:54;;;;;;;4.95;2.50;;;;;;;;;;5031696;28;20053;-63
2023/05/03 11:22:24;;;;;;;6.25;3.25;;;;;;;;;;4998442;28;20389;-63
2023/05/03 11:24:55;;;;;;;6.00;2.45;;;;;;;;;;5007123;28;20060;-62
2023/05/03 11:27:25;;;;;;;4.53;2.60;;;;;;;;;;5051423;28;20465;-63
2023/05/03 11:29:57;;;;;;;3.78;2.00;;;;;;;;;;5114696;28;20047;-63
2023/05/03 11:32:29;;;;;;;4.90;2.08;;;;;;;;;;5079429;28;20055;-63
2023/05/03 11:35:02;;;;;;;2.97;1.52;;;;;;;;;;5114330;28;20055;-64
2023/05/03 11:37:34;;;;;;;4.20;2.13;;;;;;;;;;5078358;28;20054;-63
2023/05/03 11:40:06;;;;;;;2.92;1.40;;;;;;;;;;5034443;28;20501;-63
2023/05/03 11:42:57;;;;;;;6.07;2.10;;;;;;;;;;5034513;28;20509;-63
2023/05/03 11:45:41;;;;;;;3.75;1.70;;;;;;;;;;5051398;28;20172;-63
2023/05/03 11:48:13;;;;;;;3.53;1.90;;;;;;;;;;5022220;28;20056;-63
2023/05/03 11:50:47;;;;;;;3.53;1.55;;;;;;;;;;5050842;28;20604;-63
2023/05/03 11:53:18;;;;;;;4.05;2.40;;;;;;;;;;5050921;28;20599;-63
2023/05/03 11:55:52;;;;;;;5.03;1.52;;;;;;;;;;5050909;28;20424;-63
2023/05/03 11:58:25;;;;;;;9.98;1.90;;;;;;;;;;5001814;28;20499;-63
2023/05/03 12:00:56;;;;;;;4.85;2.30;;;;;;;;;;5050819;28;20405;-63
2023/05/03 12:03:28;;;;;;;3.33;1.50;;;;;;;;;;5028777;28;20527;-63
2023/05/03 12:06:01;;;;;;;2.17;1.23;;;;;;;;;;5070853;28;20059;-63
2023/05/03 12:08:33;;;;;;;4.32;2.60;;;;;;;;;;5070756;28;20040;-63
2023/05/03 12:11:07;;;;;;;5.65;1.90;;;;;;;;;;5039071;28;20044;-63
2023/05/03 12:13:39;;;;;;;4.38;2.13;;;;;;;;;;5004869;28;20485;-64
2023/05/03 12:16:13;;;;;;;5.53;2.38;;;;;;;;;;5070631;28;20068;-63
2023/05/03 12:18:55;;;;;;;3.47;2.00;;;;;;;;;;5130254;27;20050;-63
2023/05/03 12:21:43;;;;;;;3.15;1.70;;;;;;;;;;5134139;27;20054;-63
2023/05/03 12:24:26;;;;;;;2.78;1.65;;;;;;;;;;5102445;27;20407;-63
2023/05/03 12:26:56;;;;;;;5.68;2.45;;;;;;;;;;5133992;27;20372;-63
2023/05/03 12:29:30;;;;;;;2.00;1.30;;;;;;;;;;5133888;27;20047;-63
2023/05/03 12:32:04;;;;;;;2.88;1.67;;;;;;;;;;5133953;27;20406;-63
2023/05/03 12:34:34;;;;;;;2.50;1.48;;;;;;;;;;5041452;28;20070;-63
2023/05/03 12:37:08;;;;;;;6.70;1.77;;;;;;;;;;5059236;28;20507;-63
2023/05/03 12:39:41;;;;;;;3.97;1.40;;;;;;;;;;5040161;28;20067;-63
2023/05/03 12:42:18;;;;;;;3.90;1.48;;;;;;;;;;5073606;28;20055;-63
2023/05/03 12:44:50;;;;;;;2.35;1.55;;;;;;;;;;5073324;28;20051;-63
2023/05/03 12:47:21;;;;;;;2.88;1.70;;;;;;;;;;5090206;28;20082;-63
2023/05/03 12:49:56;;;;;;;2.47;1.42;;;;;;;;;;5043531;28;20056;-63
2023/05/03 12:52:30;;;;;;;4.32;1.52;;;;;;;;;;5073313;28;20171;-63
2023/05/03 12:55:10;;;;;;;2.80;1.40;;;;;;;;;;5089878;28;20059;-63
2023/05/03 12:57:45;;;;;;;3.17;1.20;;;;;;;;;;5090082;28;20052;-63
2023/05/03 13:00:36;;;;;;;6.88;1.25;;;;;;;;;;5090219;28;20538;-63
2023/05/03 13:03:26;;;;;;;2.83;1.10;;;;;;;;;;5072937;28;20447;-63
2023/05/03 13:06:05;;;;;;;3.35;1.13;;;;;;;;;;5090090;28;20495;-63
2023/05/03 13:08:41;;;;;;;3.08;1.30;;;;;;;;;;5089958;28;20052;-64
2023/05/03 13:11:18;;;;;;;2.53;1.23;;;;;;;;;;5095591;27;20051;-63
2023/05/03 13:13:49;;;;;;;2.03;1.10;;;;;;;;;;5046782;27;20050;-63
2023/05/03 13:16:19;;;;;;;2.55;1.38;;;;;;;;;;5133309;27;20390;-63
2023/05/03 13:18:53;;;;;;;2.00;1.08;;;;;;;;;;5079748;27;20051;-63
2023/05/03 13:21:24;;;;;;;11.30;1.35;;;;;;;;;;5080304;27;20050;-63
2023/05/03 13:23:54;;;;;;;1.83;1.00;;;;;;;;;;5080046;27;20039;-63
2023/05/03 13:26:24;;;;;;;3.70;1.05;;;;;;;;;;5078699;27;20503;-63
2023/05/03 13:28:55;;;;;;;2.33;1.13;;;;;;;;;;5097239;27;20419;-63
2023/05/03 13:31:29;;;;;;;2.78;2.13;;;;;;;;;;5113688;27;20376;-64
2023/05/03 13:33:59;;;;;;;3.90;1.95;;;;;;;;;;5055661;28;20043;-64
2023/05/03 13:36:32;;;;;;;2.58;1.70;;;;;;;;;;5049041;28;20053;-63
2023/05/03 13:39:02;;;;;;;4.00;1.48;;;;;;;;;;5049321;28;20084;-63
2023/05/03 13:41:32;;;;;;;3.58;1.23;;;;;;;;;;5049031;28;20060;-63
2023/05/03 13:44:03;;;;;;;2.22;1.02;;;;;;;;;;5016043;28;20056;-62
2023/05/03 13:46:39;;;;;;;2.10;1.02;;;;;;;;;;5016020;28;20453;-63
2023/05/03 13:49:09;;;;;;;2.80;1.10;;;;;;;;;;5049303;28;20053;-63
2023/05/03 13:51:39;;;;;;;1.80;1.00;;;;;;;;;;5048992;28;20057;-63
2023/05/03 13:54:09;;;;;;;1.45;0.88;;;;;;;;;;5048941;28;20057;-63
2023/05/03 13:56:41;;;;;;;1.33;0.80;;;;;;;;;;5049284;28;20481;-64
2023/05/03 13:59:17;;;;;;;3.08;1.30;;;;;;;;;;5049035;28;20417;-64
2023/05/03 14:01:47;;;;;;;1.92;0.90;;;;;;;;;;5048957;28;20057;-64
2023/05/03 14:04:18;;;;;;;3.50;1.10;;;;;;;;;;5048847;28;20049;-64
2023/05/03 14:06:48;;;;;;;1.48;0.82;;;;;;;;;;5048995;28;20059;-64
2023/05/03 14:09:19;;;;;;;1.90;0.82;;;;;;;;;;5048921;28;20049;-65
2023/05/03 14:11:49;;;;;;;4.32;1.00;;;;;;;;;;5072039;28;20063;-64
2023/05/03 14:14:19;;;;;;;1.80;1.00;;;;;;;;;;5035695;28;20060;-64
2023/05/03 14:16:49;;;;;;;1.50;1.10;;;;;;;;;;5068580;28;20409;-64
2023/05/03 14:19:20;;;;;;;3.42;0.90;;;;;;;;;;5018785;28;20061;-64
2023/05/03 14:21:50;;;;;;;1.25;0.70;;;;;;;;;;5035704;28;20056;-64
2023/05/03 14:24:20;;;;;;;0.95;0.60;;;;;;;;;;5068270;28;20036;-65
2023/05/03 14:26:51;;;;;;;0.80;0.60;;;;;;;;;;5011677;28;20056;-65
2023/05/03 14:29:22;;;;;;;1.77;0.73;;;;;;;;;;5028608;28;20053;-64
2023/05/03 14:31:52;;;;;;;1.45;0.73;;;;;;;;;;4996347;28;20532;-65
2023/05/03 14:34:22;;;;;;;2.05;0.70;;;;;;;;;;4980225;28;20057;-65
2023/05/03 14:36:52;;;;;;;2.60;0.70;;;;;;;;;;5028212;28;20054;-64
2023/05/03 14:39:22;;;;;;;4.13;0.88;;;;;;;;;;5028552;28;20439;-63
2023/05/03 14:41:53;;;;;;;1.33;0.80;;;;;;;;;;4995498;28;20053;-63
2023/05/03 14:44:24;;;;;;;1.75;1.08;;;;;;;;;;5028247;28;20158;-63
2023/05/03 14:46:58;;;;;;;;;;;;;;;;;;5028873;28;20050;-62
2023/05/03 14:49:28;;;;;;;2.13;1.58;;;;;;;;;;5011610;28;20304;-63
2023/05/03 14:51:58;;;;;;;1.92;0.60;;;;;;;;;;5032162;28;20052;-62
2023/05/03 14:54:29;;;;;;;1.58;0.80;;;;;;;;;;5034827;28;20061;-62
2023/05/03 14:57:00;;;;;;;1.88;0.90;;;;;;;;;;5018654;28;20056;-63
2023/05/03 14:59:33;;;;;;;1.13;0.60;;;;;;;;;;5067992;28;20060;-62
2023/05/03 15:02:04;;;;;;;1.60;0.80;;;;;;;;;;5047647;28;20052;-64
2023/05/03 15:04:36;;;;;;;2.03;0.90;;;;;;;;;;5060068;28;20052;-62
2023/05/03 15:07:08;;;;;;;1.73;0.77;;;;;;;;;;5038892;28;20048;-62
2023/05/03 15:09:41;;;;;;;5.35;0.90;;;;;;;;;;5087995;28;20067;-63
2023/05/03 15:12:11;;;;;;;1.65;0.80;;;;;;;;;;5088190;28;20051;-62
2023/05/03 15:14:41;;;;;;;1.40;0.63;;;;;;;;;;5087997;28;20044;-63
2023/05/03 15:17:11;;;;;;;1.25;0.60;;;;;;;;;;5087883;28;20052;-63